createdAt,value
2022-08-30T00:02:10.703Z,132.40
2022-08-30T00:04:37.426Z,139.77
2022-08-30T00:07:04.455Z,144.45
2022-08-30T00:09:32.211Z,162.80
2022-08-30T00:11:58.906Z,162.48
2022-08-30T00:14:27.494Z,156.48
2022-08-30T00:16:54.362Z,172.60
2022-08-30T00:19:21.159Z,165.35
2022-08-30T00:21:47.868Z,180.02
2022-08-30T00:24:14.493Z,186.80
2022-08-30T00:26:41.177Z,198.68
2022-08-30T00:29:07.785Z,213.98
2022-08-30T00:31:34.492Z,202.13
2022-08-30T00:34:01.216Z,215.75
2022-08-30T00:36:27.813Z,219.20
2022-08-30T00:38:54.478Z,234.23
2022-08-30T00:41:24.193Z,218.52
2022-08-30T00:43:50.798Z,227.93
2022-08-30T00:46:17.513Z,238.07
2022-08-30T00:48:48.003Z,242.10
2022-08-30T00:51:15.657Z,250.07
2022-08-30T00:53:46.555Z,241.45
2022-08-30T00:56:13.771Z,254.82
2022-08-30T00:58:45.466Z,256.92
2022-08-30T01:01:12.379Z,262.27
2022-08-30T01:03:40.627Z,268.55
2022-08-30T01:06:07.786Z,265.83
2022-08-30T01:08:35.302Z,264.25
2022-08-30T01:11:04.306Z,271.50
2022-08-30T01:13:34.630Z,277.15
2022-08-30T01:16:02.590Z,279.65
2022-08-30T01:18:29.851Z,268.38
2022-08-30T01:21:06.932Z,262.33
2022-08-30T01:23:35.694Z,271.37
2022-08-30T01:26:06.239Z,256.98
2022-08-30T01:28:33.581Z,259.55
2022-08-30T01:31:00.354Z,260.70
2022-08-30T01:33:27.411Z,277.50
2022-08-30T01:36:03.720Z,270.48
2022-08-30T01:38:52.955Z,274.73
2022-08-30T01:41:34.441Z,285.48
2022-08-30T01:44:04.764Z,295.30
2022-08-30T01:46:36.286Z,288.55
2022-08-30T01:49:07.315Z,305.43
2022-08-30T01:51:34.405Z,315.85
2022-08-30T01:54:01.197Z,309.33
2022-08-30T01:56:29.269Z,314.20
2022-08-30T01:59:01.867Z,302.10
2022-08-30T02:01:32.573Z,303.05
2022-08-30T02:03:59.914Z,315.88
2022-08-30T02:06:26.897Z,326.17
2022-08-30T02:08:53.669Z,317.17
2022-08-30T02:11:20.296Z,321.48
2022-08-30T02:13:47.397Z,317.67
2022-08-30T02:16:17.732Z,319.85
2022-08-30T02:18:45.109Z,311.67
2022-08-30T02:21:12.977Z,314.65
2022-08-30T02:23:39.648Z,307.17
2022-08-30T02:26:06.858Z,306.10
2022-08-30T02:28:33.809Z,308.42
2022-08-30T02:31:01.170Z,296.77
2022-08-30T02:33:28.064Z,304.65
2022-08-30T02:35:56.190Z,311.23
2022-08-30T02:38:23.765Z,312.40
2022-08-30T02:40:51.241Z,304.80
2022-08-30T02:43:19.473Z,300.02
2022-08-30T02:45:46.294Z,318.73
2022-08-30T02:48:13.002Z,314.35
2022-08-30T02:50:45.209Z,303.88
2022-08-30T02:53:16.212Z,317.38
2022-08-30T02:55:46.131Z,319.42
2022-08-30T02:58:12.784Z,325.48
2022-08-30T03:00:41.259Z,326.80
2022-08-30T03:03:08.448Z,325.05
2022-08-30T03:05:39.889Z,338.20
2022-08-30T03:08:08.312Z,333.75
2022-08-30T03:10:35.593Z,341.23
2022-08-30T03:13:03.385Z,349.50
2022-08-30T03:15:30.034Z,346.42
2022-08-30T03:17:57.146Z,339.88
2022-08-30T03:20:24.489Z,340.25
2022-08-30T03:22:51.983Z,328.90
2022-08-30T03:25:20.708Z,330.63
2022-08-30T03:27:48.165Z,329.60
2022-08-30T03:30:14.801Z,334.02
2022-08-30T03:32:41.928Z,332.17
2022-08-30T03:35:10.280Z,323.42
2022-08-30T03:37:37.400Z,327.13
2022-08-30T03:40:07.401Z,316.92
2022-08-30T03:42:34.132Z,331.75
2022-08-30T03:45:04.457Z,341.23
2022-08-30T03:47:31.169Z,323.70
2022-08-30T03:49:57.775Z,321.88
2022-08-30T03:52:24.486Z,322.85
2022-08-30T03:54:51.192Z,343.40
2022-08-30T03:57:20.248Z,331.92
2022-08-30T03:59:51.738Z,339.98
2022-08-30T04:02:18.845Z,326.97
2022-08-30T04:04:45.813Z,331.00
2022-08-30T04:07:12.801Z,327.15
2022-08-30T04:09:39.680Z,329.70
2022-08-30T04:12:06.477Z,330.27
2022-08-30T04:14:33.182Z,334.83
2022-08-30T04:16:59.961Z,323.88
2022-08-30T04:19:26.577Z,331.30
2022-08-30T04:21:53.191Z,337.77
2022-08-30T04:24:19.898Z,350.60
2022-08-30T04:26:46.593Z,344.98
2022-08-30T04:29:16.681Z,339.83
2022-08-30T04:31:44.396Z,342.40
2022-08-30T04:34:12.518Z,340.00
2022-08-30T04:36:39.480Z,335.55
2022-08-30T04:39:06.946Z,326.42
2022-08-30T04:41:34.127Z,339.85
2022-08-30T04:44:03.479Z,332.10
2022-08-30T04:46:30.857Z,325.25
2022-08-30T04:48:57.642Z,327.77
2022-08-30T04:51:24.454Z,337.40
2022-08-30T04:53:51.301Z,325.92
2022-08-30T04:56:22.410Z,319.98
2022-08-30T04:58:53.003Z,314.75
2022-08-30T05:01:29.663Z,319.17
2022-08-30T05:03:58.602Z,309.73
2022-08-30T05:06:28.179Z,304.77
2022-08-30T05:08:55.499Z,304.83
2022-08-30T05:11:23.052Z,287.63
2022-08-30T05:13:49.828Z,276.00
2022-08-30T05:16:18.137Z,265.40
2022-08-30T05:18:46.800Z,258.27
2022-08-30T05:21:17.948Z,254.23
2022-08-30T05:23:44.974Z,236.77
2022-08-30T05:26:20.858Z,245.68
2022-08-30T05:28:47.697Z,225.35
2022-08-30T05:31:25.066Z,227.60
2022-08-30T05:33:53.386Z,217.77
2022-08-30T05:36:22.620Z,217.70
2022-08-30T05:38:50.215Z,219.38
2022-08-30T05:41:19.930Z,203.02
2022-08-30T05:43:47.922Z,191.82
2022-08-30T05:46:19.557Z,184.00
2022-08-30T05:48:46.968Z,161.25
2022-08-30T05:51:20.792Z,169.35
2022-08-30T05:53:49.440Z,157.95
2022-08-30T05:56:19.998Z,160.77
2022-08-30T05:58:46.960Z,157.57
2022-08-30T06:01:34.557Z,151.18
2022-08-30T06:04:04.252Z,141.63
2022-08-30T06:06:32.941Z,143.93
2022-08-30T06:09:00.319Z,139.90
2022-08-30T06:11:28.344Z,127.40
2022-08-30T06:13:55.771Z,125.25
2022-08-30T06:16:26.018Z,106.85
2022-08-30T06:18:54.421Z,101.75
2022-08-30T06:21:28.695Z,92.85
2022-08-30T06:23:56.154Z,71.55
2022-08-30T06:26:26.039Z,65.65
2022-08-30T06:28:53.003Z,60.25
2022-08-30T06:31:21.919Z,56.83
2022-08-30T06:33:49.260Z,56.63
2022-08-30T06:36:19.269Z,40.80
2022-08-30T06:38:47.146Z,41.15
2022-08-30T06:41:16.446Z,29.73
2022-08-30T06:43:48.653Z,28.83
2022-08-30T06:46:21.976Z,21.47
2022-08-30T06:48:48.920Z,22.80
2022-08-30T06:51:20.901Z,18.13
2022-08-30T06:53:48.885Z,12.70
2022-08-30T06:56:16.925Z,11.23
2022-08-30T06:58:44.737Z,10.30
2022-08-30T07:01:16.508Z,10.57
2022-08-30T07:03:43.268Z,11.95
2022-08-30T07:06:10.889Z,10.38
2022-08-30T07:08:41.231Z,9.00
2022-08-30T07:11:08.737Z,8.43
2022-08-30T07:13:36.567Z,7.50
2022-08-30T07:16:11.643Z,6.77
2022-08-30T07:18:50.611Z,6.57
2022-08-30T07:21:33.224Z,6.70
2022-08-30T07:24:00.974Z,7.07
2022-08-30T07:26:33.256Z,5.93
2022-08-30T07:28:59.929Z,5.43
2022-08-30T07:31:26.691Z,4.68
2022-08-30T07:33:53.398Z,3.63
2022-08-30T07:36:22.007Z,3.00
2022-08-30T07:38:52.161Z,3.38
2022-08-30T07:41:25.510Z,3.00
2022-08-30T07:43:52.441Z,2.55
2022-08-30T07:46:19.762Z,2.30
2022-08-30T07:48:46.724Z,2.20
2022-08-30T07:51:16.586Z,1.90
2022-08-30T07:53:43.675Z,1.87
2022-08-30T07:56:10.553Z,1.77
2022-08-30T07:58:44.598Z,1.60
2022-08-30T08:01:12.590Z,1.40
2022-08-30T08:03:41.959Z,1.50
2022-08-30T08:06:10.817Z,1.67
2022-08-30T08:08:38.798Z,1.42
2022-08-30T08:11:16.310Z,1.30
2022-08-30T08:13:53.690Z,1.35
2022-08-30T08:16:26.632Z,1.40
2022-08-30T08:18:54.380Z,1.20
2022-08-30T08:21:23.772Z,1.10
2022-08-30T08:23:51.381Z,1.17
2022-08-30T08:26:19.174Z,1.27
2022-08-30T08:28:47.180Z,1.30
2022-08-30T08:31:19.439Z,1.08
2022-08-30T08:33:46.329Z,1.30
2022-08-30T08:36:13.248Z,1.20
2022-08-30T08:38:39.953Z,1.05
2022-08-30T08:41:37.613Z,1.30
2022-08-30T08:44:14.082Z,1.20
2022-08-30T08:46:55.672Z,1.10
2022-08-30T08:49:23.246Z,1.10
2022-08-30T08:52:08.911Z,1.20
2022-08-30T08:54:42.925Z,1.20
2022-08-30T08:57:13.866Z,1.10
2022-08-30T08:59:44.992Z,1.10
2022-08-30T09:02:24.150Z,1.00
2022-08-30T09:04:56.286Z,0.90
2022-08-30T09:07:27.824Z,1.10
2022-08-30T09:09:54.626Z,1.10
2022-08-30T09:12:21.499Z,0.85
2022-08-30T09:14:55.798Z,1.20
2022-08-30T09:17:22.975Z,1.13
2022-08-30T09:19:52.523Z,1.20
2022-08-30T09:22:43.777Z,1.10
2022-08-30T09:25:13.432Z,1.08
2022-08-30T09:27:51.542Z,1.10
2022-08-30T09:30:27.276Z,1.02
2022-08-30T09:33:05.850Z,1.15
2022-08-30T09:35:46.668Z,1.20
2022-08-30T09:38:26.529Z,1.02
2022-08-30T09:41:05.573Z,0.95
2022-08-30T09:43:34.092Z,1.00
2022-08-30T09:46:00.871Z,1.05
2022-08-30T09:48:44.111Z,0.90
2022-08-30T09:51:19.707Z,1.02
2022-08-30T09:56:48.406Z,1.10
2022-08-30T09:59:40.214Z,0.90
2022-08-30T10:02:45.635Z,1.08
2022-08-30T10:05:31.715Z,0.93
2022-08-30T10:08:34.759Z,1.00
2022-08-30T10:11:26.723Z,1.00
2022-08-30T10:14:28.726Z,1.13
2022-08-30T10:17:04.361Z,1.05
2022-08-30T10:19:54.630Z,0.98
2022-08-30T10:22:44.335Z,1.00
2022-08-30T10:25:22.610Z,1.10
2022-08-30T10:28:00.549Z,1.10
2022-08-30T10:30:29.029Z,0.90
2022-08-30T10:33:04.968Z,0.90
2022-08-30T10:35:54.700Z,1.10
2022-08-30T10:38:29.494Z,1.00
2022-08-30T10:41:13.007Z,1.10
2022-08-30T10:43:50.989Z,1.13
2022-08-30T10:46:30.973Z,1.00
2022-08-30T10:49:01.312Z,1.10
2022-08-30T10:51:35.889Z,1.00
2022-08-30T10:54:08.419Z,1.10
2022-08-30T10:56:41.121Z,0.90
2022-08-30T10:59:07.772Z,1.08
2022-08-30T11:01:46.821Z,0.90
2022-08-30T11:04:35.437Z,1.20
2022-08-30T11:07:20.266Z,1.08
2022-08-30T11:09:55.873Z,0.80
2022-08-30T11:12:42.525Z,0.90
2022-08-30T11:15:22.263Z,1.00
2022-08-30T11:17:57.584Z,0.90
2022-08-30T11:20:31.320Z,1.10
2022-08-30T11:23:26.841Z,0.95
2022-08-30T11:26:08.924Z,0.97
2022-08-30T11:28:46.736Z,1.10
2022-08-30T11:31:22.605Z,0.80
2022-08-30T11:33:53.121Z,1.10
2022-08-30T11:36:29.146Z,0.95
2022-08-30T11:39:07.473Z,1.00
2022-08-30T11:41:47.685Z,1.00
2022-08-30T11:44:31.432Z,1.00
2022-08-30T11:47:22.044Z,1.02
2022-08-30T11:49:58.891Z,1.00
2022-08-30T11:52:41.390Z,1.10
2022-08-30T11:55:22.477Z,1.05
2022-08-30T11:58:16.990Z,1.10
2022-08-30T12:00:52.522Z,1.00
2022-08-30T12:03:20.458Z,1.02
2022-08-30T12:06:02.657Z,0.93
2022-08-30T12:08:34.167Z,0.95
2022-08-30T12:11:26.613Z,0.98
2022-08-30T12:13:55.537Z,1.05
2022-08-30T12:16:28.214Z,1.10
2022-08-30T12:19:00.912Z,1.00
2022-08-30T12:21:43.740Z,1.10
2022-08-30T12:24:11.811Z,0.90
2022-08-30T12:26:42.062Z,1.00
2022-08-30T12:29:24.570Z,0.90
2022-08-30T12:31:58.172Z,0.80
2022-08-30T12:34:40.213Z,1.10
2022-08-30T12:37:30.673Z,1.03
2022-08-30T12:40:20.107Z,1.00
2022-08-30T12:43:24.728Z,0.80
2022-08-30T12:45:54.436Z,1.10
2022-08-30T12:48:21.839Z,0.93
2022-08-30T12:50:57.818Z,0.88
2022-08-30T12:53:31.696Z,0.85
2022-08-30T12:56:05.416Z,0.95
2022-08-30T12:58:40.893Z,0.73
2022-08-30T13:01:19.648Z,1.00
2022-08-30T13:04:20.163Z,0.90
2022-08-30T13:06:51.255Z,0.90
2022-08-30T13:09:32.655Z,0.80
2022-08-30T13:12:01.939Z,0.70
2022-08-30T13:14:35.311Z,0.90
2022-08-30T13:17:14.351Z,0.80
2022-08-30T13:19:44.520Z,0.90
2022-08-30T13:23:00.917Z,0.90
2022-08-30T13:25:32.875Z,0.88
2022-08-30T13:28:04.594Z,0.80
2022-08-30T13:30:31.792Z,0.90
2022-08-30T13:32:58.880Z,0.80
2022-08-30T13:35:33.151Z,0.70
2022-08-30T13:38:02.281Z,0.90
2022-08-30T13:40:29.081Z,0.70
2022-08-30T13:42:56.635Z,0.70
2022-08-30T13:45:41.517Z,0.70
2022-08-30T13:48:10.748Z,0.50
2022-08-30T13:50:37.577Z,0.70
2022-08-30T13:53:09.143Z,0.73
2022-08-30T13:55:37.377Z,0.70
2022-08-30T13:58:04.024Z,0.90
2022-08-30T14:00:36.174Z,0.90
2022-08-30T14:03:06.751Z,0.80
2022-08-30T14:05:48.925Z,0.75
2022-08-30T14:11:12.961Z,0.80
2022-08-30T14:16:32.580Z,0.73
2022-08-30T14:19:00.587Z,1.00
2022-08-30T14:21:28.100Z,0.73
2022-08-30T14:23:56.513Z,0.70
2022-08-30T14:26:33.464Z,0.70
2022-08-30T14:29:02.174Z,0.80
2022-08-30T14:31:30.196Z,1.10
2022-08-30T14:34:00.518Z,0.95
2022-08-30T14:36:27.183Z,0.75
2022-08-30T14:38:53.779Z,0.67
2022-08-30T14:41:20.717Z,0.80
2022-08-30T14:43:47.481Z,0.73
2022-08-30T14:46:14.456Z,1.02
2022-08-30T14:48:41.811Z,0.90
2022-08-30T14:51:19.594Z,0.90
2022-08-30T14:53:47.716Z,0.90
2022-08-30T14:56:19.508Z,0.90
2022-08-30T14:58:49.739Z,0.82
2022-08-30T15:01:17.147Z,0.90
2022-08-30T15:03:45.841Z,0.90
2022-08-30T15:06:13.105Z,0.80
2022-08-30T15:08:40.068Z,0.90
2022-08-30T15:11:12.407Z,1.10
2022-08-30T15:13:40.533Z,0.80
2022-08-30T15:16:16.898Z,0.90
2022-08-30T15:18:43.935Z,1.00
2022-08-30T15:21:21.878Z,0.80
2022-08-30T15:23:51.306Z,1.00
2022-08-30T15:26:19.406Z,0.85
2022-08-30T15:28:46.614Z,0.80
2022-08-30T15:31:13.437Z,1.10
2022-08-30T15:33:41.040Z,1.10
2022-08-30T15:36:12.300Z,1.10
2022-08-30T15:38:39.722Z,1.00
2022-08-30T15:41:10.145Z,1.00
2022-08-30T15:43:38.446Z,1.20
2022-08-30T15:46:23.689Z,1.20
2022-08-30T15:49:02.163Z,1.13
2022-08-30T15:51:41.792Z,1.17
2022-08-30T15:54:18.982Z,1.05
2022-08-30T15:56:46.620Z,1.25
2022-08-30T15:59:18.670Z,1.00
2022-08-30T16:01:47.331Z,1.17
2022-08-30T16:04:20.078Z,1.10
2022-08-30T16:06:46.889Z,1.00
2022-08-30T16:09:17.515Z,0.90
2022-08-30T16:11:44.701Z,0.80
2022-08-30T16:14:11.669Z,1.00
2022-08-30T16:16:39.889Z,0.90
2022-08-30T16:19:08.729Z,1.05
2022-08-30T16:21:37.010Z,1.00
2022-08-30T16:24:06.329Z,1.00
2022-08-30T16:26:34.429Z,1.30
2022-08-30T16:29:01.778Z,1.10
2022-08-30T16:31:30.299Z,0.90
2022-08-30T16:34:02.279Z,1.00
2022-08-30T16:36:30.797Z,0.90
2022-08-30T16:38:58.498Z,0.90
2022-08-30T16:41:26.006Z,1.20
2022-08-30T16:43:53.859Z,1.03
2022-08-30T16:46:27.842Z,1.00
2022-08-30T16:48:57.626Z,1.10
2022-08-30T16:51:27.106Z,1.30
2022-08-30T16:53:58.524Z,1.30
2022-08-30T16:56:27.548Z,1.10
2022-08-30T16:59:01.240Z,1.35
2022-08-30T17:01:31.203Z,1.27
2022-08-30T17:03:58.201Z,1.00
2022-08-30T17:06:24.868Z,1.00
2022-08-30T17:08:56.229Z,0.90
2022-08-30T17:11:23.526Z,1.20
2022-08-30T17:13:50.972Z,1.25
2022-08-30T17:16:22.460Z,1.13
2022-08-30T17:18:55.056Z,1.33
2022-08-30T17:21:21.839Z,1.35
2022-08-30T17:23:50.072Z,1.10
2022-08-30T17:26:21.120Z,1.10
2022-08-30T17:28:48.558Z,1.10
2022-08-30T17:31:15.289Z,1.20
2022-08-30T17:33:45.388Z,1.00
2022-08-30T17:36:15.078Z,1.20
2022-08-30T17:38:44.982Z,1.10
2022-08-30T17:41:13.083Z,1.38
2022-08-30T17:43:42.635Z,1.20
2022-08-30T17:46:12.189Z,1.20
2022-08-30T17:48:40.377Z,1.50
2022-08-30T17:51:07.886Z,1.27
2022-08-30T17:53:35.257Z,1.40
2022-08-30T17:56:02.979Z,1.10
2022-08-30T17:58:29.629Z,1.20
2022-08-30T18:01:13.525Z,1.20
2022-08-30T18:03:45.347Z,1.30
2022-08-30T18:06:13.512Z,1.33
2022-08-30T18:08:43.320Z,1.40
2022-08-30T18:11:09.923Z,1.48
2022-08-30T18:13:40.424Z,1.70
2022-08-30T18:16:07.737Z,1.57
2022-08-30T18:18:34.550Z,1.50
2022-08-30T18:21:03.327Z,1.77
2022-08-30T18:23:31.261Z,1.50
2022-08-30T18:26:01.576Z,1.38
2022-08-30T18:28:29.804Z,1.60
2022-08-30T18:30:57.941Z,1.80
2022-08-30T18:33:30.250Z,2.08
2022-08-30T18:35:58.887Z,1.90
2022-08-30T18:38:27.148Z,2.17
2022-08-30T18:41:06.530Z,2.70
2022-08-30T18:43:34.210Z,2.00
2022-08-30T18:46:13.117Z,2.00
2022-08-30T18:48:42.160Z,2.38
2022-08-30T18:51:14.174Z,2.78
2022-08-30T18:53:44.367Z,3.78
2022-08-30T18:56:11.938Z,4.47
2022-08-30T18:58:44.603Z,5.15
2022-08-30T19:01:12.712Z,6.50
2022-08-30T19:03:40.124Z,6.15
2022-08-30T19:06:11.275Z,6.05
2022-08-30T19:08:38.772Z,7.20
2022-08-30T19:11:07.584Z,8.55
2022-08-30T19:13:35.450Z,9.10
2022-08-30T19:16:04.120Z,9.95
2022-08-30T19:18:30.864Z,9.18
2022-08-30T19:20:57.594Z,8.50
2022-08-30T19:23:27.074Z,11.02
2022-08-30T19:25:54.933Z,12.25
2022-08-30T19:28:24.850Z,13.50
2022-08-30T19:30:52.301Z,14.05
2022-08-30T19:33:19.688Z,14.10
2022-08-30T19:35:50.945Z,13.10
2022-08-30T19:38:18.224Z,15.75
2022-08-30T19:40:53.874Z,16.08
2022-08-30T19:43:21.207Z,17.40
2022-08-30T19:45:55.678Z,17.92
2022-08-30T19:51:16.291Z,17.67
2022-08-30T19:53:43.468Z,17.10
2022-08-30T19:56:10.928Z,19.30
2022-08-30T19:58:37.574Z,18.75
2022-08-30T20:01:10.520Z,17.27
2022-08-30T20:03:39.942Z,18.48
2022-08-30T20:06:07.494Z,17.67
2022-08-30T20:08:35.317Z,16.35
2022-08-30T20:11:02.060Z,19.55
2022-08-30T20:13:30.174Z,22.02
2022-08-30T20:16:00.746Z,23.30
2022-08-30T20:18:27.466Z,22.73
2022-08-30T20:20:55.152Z,22.70
2022-08-30T20:23:24.116Z,20.60
2022-08-30T20:25:55.440Z,19.95
2022-08-30T20:28:25.561Z,22.58
2022-08-30T20:30:57.635Z,22.55
2022-08-30T20:33:25.173Z,20.80
2022-08-30T20:36:01.537Z,20.13
2022-08-30T20:38:36.548Z,17.73
2022-08-30T20:41:10.175Z,17.60
2022-08-30T20:43:37.114Z,18.85
2022-08-30T20:46:09.287Z,14.43
2022-08-30T20:48:35.897Z,12.20
2022-08-30T20:51:06.782Z,11.90
2022-08-30T20:53:33.521Z,12.40
2022-08-30T20:56:01.043Z,11.32
2022-08-30T20:58:30.727Z,12.27
2022-08-30T21:00:57.471Z,8.30
2022-08-30T21:03:26.172Z,8.20
2022-08-30T21:05:55.388Z,8.32
2022-08-30T21:08:22.484Z,9.07
2022-08-30T21:10:53.383Z,9.38
2022-08-30T21:13:20.699Z,10.50
2022-08-30T21:15:51.856Z,10.57
2022-08-30T21:18:20.991Z,11.67
2022-08-30T21:20:47.786Z,9.40
2022-08-30T21:23:14.921Z,8.98
2022-08-30T21:25:42.672Z,8.10
2022-08-30T21:28:09.720Z,7.95
2022-08-30T21:30:37.090Z,7.22
2022-08-30T21:33:05.186Z,6.30
2022-08-30T21:35:50.288Z,5.95
2022-08-30T21:38:17.315Z,4.95
2022-08-30T21:40:44.363Z,5.68
2022-08-30T21:43:11.397Z,6.30
2022-08-30T21:45:38.870Z,5.65
2022-08-30T21:48:05.799Z,4.18
2022-08-30T21:50:32.599Z,4.97
2022-08-30T21:52:59.433Z,4.47
2022-08-30T21:55:26.568Z,4.70
2022-08-30T21:57:54.710Z,4.20
2022-08-30T22:00:26.095Z,4.43
2022-08-30T22:02:55.167Z,4.32
2022-08-30T22:05:25.149Z,4.25
2022-08-30T22:07:52.140Z,4.28
2022-08-30T22:10:22.244Z,4.60
2022-08-30T22:13:16.753Z,5.57
2022-08-30T22:15:47.026Z,4.93
2022-08-30T22:18:16.267Z,6.93
2022-08-30T22:20:44.894Z,7.33
2022-08-30T22:23:11.533Z,7.90
2022-08-30T22:25:42.435Z,8.30
2022-08-30T22:28:09.400Z,9.57
2022-08-30T22:30:38.813Z,7.20
2022-08-30T22:33:05.441Z,8.82
2022-08-30T22:35:32.086Z,8.57
2022-08-30T22:37:59.043Z,8.40
2022-08-30T22:40:25.799Z,8.98
2022-08-30T22:42:54.142Z,8.07
2022-08-30T22:45:41.870Z,10.13
2022-08-30T22:48:11.745Z,10.15
2022-08-30T22:50:38.829Z,8.35
2022-08-30T22:53:15.097Z,9.48
2022-08-30T22:55:41.667Z,8.80
2022-08-30T22:58:08.449Z,8.95
2022-08-30T23:00:40.573Z,9.93
2022-08-30T23:03:11.939Z,11.35
2022-08-30T23:05:39.579Z,13.27
2022-08-30T23:08:07.298Z,16.80
2022-08-30T23:10:34.765Z,16.83
2022-08-30T23:13:01.921Z,16.42
2022-08-30T23:15:29.173Z,15.10
2022-08-30T23:17:55.892Z,14.57
2022-08-30T23:20:23.607Z,18.52
2022-08-30T23:22:59.024Z,15.50
2022-08-30T23:25:46.858Z,13.82
2022-08-30T23:28:40.798Z,15.70
2022-08-30T23:31:31.654Z,15.98
2022-08-30T23:34:17.368Z,14.80
2022-08-30T23:37:03.082Z,15.02
2022-08-30T23:39:48.444Z,13.63
2022-08-30T23:42:34.400Z,15.65
2022-08-30T23:45:19.409Z,16.07
2022-08-30T23:48:04.625Z,17.65
2022-08-30T23:50:49.738Z,20.63
2022-08-30T23:53:34.962Z,20.38
2022-08-30T23:56:20.134Z,23.88
2022-08-30T23:59:05.453Z,29.73
